Time;durP1;ratioP1;P1;durP2;ratioP2;P2;SDS_P1;SDS_P2;PMS_P1;PMS_P2;Temp;Humidity;BMP_temperature;BMP_pressure;BME280_temperature;BME280_humidity;BME280_pressure;Samples;Min_cycle;Max_cycle;Signal;HPM_P1;HPM_P2
2021/08/29 00:01:20;;;;;;;11.82;4.95;;;16.60;99.90;;;;;;5094503;28;20055;-55
2021/08/29 00:03:45;;;;;;;11.32;4.07;;;16.50;99.90;;;;;;5094880;28;20039;-56
2021/08/29 00:06:11;;;;;;;14.05;4.45;;;16.60;99.90;;;;;;5094515;28;20081;-55
2021/08/29 00:08:37;;;;;;;10.10;4.10;;;16.50;99.90;;;;;;5094745;28;20036;-56
2021/08/29 00:11:02;;;;;;;11.60;5.28;;;16.50;99.90;;;;;;5094716;28;20044;-56
2021/08/29 00:13:28;;;;;;;11.57;4.38;;;16.60;99.90;;;;;;5094593;28;20102;-55
2021/08/29 00:15:54;;;;;;;9.38;4.13;;;16.50;99.90;;;;;;5076311;28;20047;-56
2021/08/29 00:18:19;;;;;;;10.52;4.25;;;16.60;99.90;;;;;;5094362;28;20043;-56
2021/08/29 00:20:46;;;;;;;11.85;4.20;;;16.60;99.90;;;;;;5094204;28;20451;-56
2021/08/29 00:23:12;;;;;;;11.13;5.05;;;16.60;99.90;;;;;;5094297;28;20048;-56
2021/08/29 00:25:38;;;;;;;11.77;4.97;;;16.70;99.90;;;;;;5094480;28;20066;-56
2021/08/29 00:28:04;;;;;;;10.65;3.50;;;16.60;99.90;;;;;;5094298;28;20043;-56
2021/08/29 00:30:29;;;;;;;11.73;4.20;;;16.60;99.90;;;;;;5094231;28;20034;-55
2021/08/29 00:32:55;;;;;;;17.42;4.30;;;16.60;99.90;;;;;;5093812;28;20512;-56
2021/08/29 00:35:21;;;;;;;9.13;4.40;;;16.60;99.90;;;;;;5093878;28;20497;-55
2021/08/29 00:37:47;;;;;;;15.70;4.18;;;16.60;99.90;;;;;;5094152;28;20028;-55
2021/08/29 00:40:18;;;;;;;14.13;5.15;;;16.60;99.90;;;;;;5094178;28;20494;-56
2021/08/29 00:42:49;;;;;;;11.48;4.80;;;16.60;99.90;;;;;;5093993;28;20091;-56
2021/08/29 00:45:15;;;;;;;12.27;4.85;;;16.60;99.90;;;;;;5093834;28;20512;-56
2021/08/29 00:47:40;;;;;;;12.60;4.88;;;16.60;99.90;;;;;;5094022;28;20039;-56
2021/08/29 00:50:07;;;;;;;11.23;5.30;;;16.60;99.90;;;;;;5075380;28;20863;-55
2021/08/29 00:52:39;;;;;;;14.68;4.85;;;16.60;99.90;;;;;;5093892;28;20062;-56
2021/08/29 00:55:07;;;;;;;17.95;5.13;;;16.60;99.90;;;;;;5093782;28;20044;-56
2021/08/29 00:57:33;;;;;;;13.23;4.80;;;16.60;99.90;;;;;;5094034;28;20047;-55
2021/08/29 00:59:58;;;;;;;13.23;5.13;;;16.60;99.90;;;;;;5093436;28;20040;-56
2021/08/29 01:02:26;;;;;;;16.27;6.15;;;16.60;99.90;;;;;;5093408;28;20036;-55
2021/08/29 01:05:03;;;;;;;11.98;5.30;;;16.70;99.90;;;;;;5093703;28;20040;-55
2021/08/29 01:07:36;;;;;;;9.60;4.05;;;16.60;99.90;;;;;;5093053;28;20044;-56
2021/08/29 01:10:06;;;;;;;11.02;4.43;;;16.60;99.90;;;;;;5093238;28;20500;-55
2021/08/29 01:12:32;;;;;;;9.27;5.03;;;16.60;99.90;;;;;;5093446;28;20048;-56
2021/08/29 01:15:03;;;;;;;15.50;4.82;;;16.70;99.90;;;;;;5093476;28;20481;-56
2021/08/29 01:17:32;;;;;;;13.25;5.82;;;16.60;99.90;;;;;;5093405;28;20130;-56
2021/08/29 01:20:13;;;;;;;;;;;16.60;99.90;;;;;;5093562;28;20128;-56
2021/08/29 01:22:40;;;;;;;7.00;4.05;;;16.50;99.90;;;;;;5093401;28;19927;-55
2021/08/29 01:25:09;;;;;;;12.65;3.92;;;16.60;99.90;;;;;;5093109;28;20072;-55
2021/08/29 01:27:49;;;;;;;9.55;4.13;;;16.60;99.90;;;;;;5093262;28;20415;-56
2021/08/29 01:30:15;;;;;;;12.07;4.90;;;16.60;99.90;;;;;;5092962;28;20043;-55
2021/08/29 01:32:42;;;;;;;7.95;4.35;;;16.70;99.90;;;;;;5074951;28;20052;-55
2021/08/29 01:35:09;;;;;;;10.15;3.78;;;16.60;99.90;;;;;;5093007;28;20085;-56
2021/08/29 01:37:35;;;;;;;13.55;4.13;;;16.60;99.90;;;;;;5092813;28;20040;-55
2021/08/29 01:40:03;;;;;;;12.82;4.22;;;16.60;99.90;;;;;;5092773;28;20036;-56
2021/08/29 01:42:29;;;;;;;13.13;4.30;;;16.60;99.90;;;;;;5092646;28;20043;-55
2021/08/29 01:44:55;;;;;;;13.05;3.40;;;16.60;99.90;;;;;;5092876;28;20044;-55
2021/08/29 01:47:21;;;;;;;11.68;4.10;;;16.60;99.90;;;;;;5074352;28;20093;-56
2021/08/29 01:49:48;;;;;;;10.68;3.58;;;16.60;99.90;;;;;;5092591;28;20036;-56
2021/08/29 01:52:14;;;;;;;16.55;5.13;;;16.70;99.90;;;;;;5092564;28;20082;-56
2021/08/29 01:54:40;;;;;;;9.93;3.80;;;16.60;99.90;;;;;;5092484;28;20051;-56
2021/08/29 01:57:13;;;;;;;11.57;4.20;;;16.60;99.90;;;;;;5092598;28;20039;-56
2021/08/29 01:59:42;;;;;;;13.05;4.20;;;16.60;99.90;;;;;;5092414;28;20042;-56
2021/08/29 02:02:08;;;;;;;;;;;16.60;99.90;;;;;;5092761;28;20040;-56
2021/08/29 02:04:34;;;;;;;10.70;3.88;;;16.60;99.90;;;;;;5092417;28;19923;-55
2021/08/29 02:07:06;;;;;;;14.02;3.95;;;16.60;99.90;;;;;;5074020;28;20114;-55
2021/08/29 02:09:34;;;;;;;9.75;3.53;;;16.60;99.90;;;;;;5092680;28;20047;-55
2021/08/29 02:12:00;;;;;;;9.98;2.90;;;16.60;99.90;;;;;;5092442;28;20386;-55
2021/08/29 02:14:31;;;;;;;15.05;4.43;;;16.60;99.90;;;;;;5092345;28;20040;-55
2021/08/29 02:16:58;;;;;;;21.35;4.60;;;16.60;99.90;;;;;;5092278;28;20036;-55
2021/08/29 02:19:27;;;;;;;16.70;4.50;;;16.60;99.90;;;;;;5091364;28;20039;-55
2021/08/29 02:21:52;;;;;;;;;;;16.60;99.90;;;;;;5092673;28;20040;-55
2021/08/29 02:24:24;;;;;;;8.75;3.55;;;16.60;99.90;;;;;;5092162;28;20377;-55
2021/08/29 02:26:51;;;;;;;8.63;3.92;;;16.60;99.90;;;;;;5092040;28;20548;-55
2021/08/29 02:29:17;;;;;;;8.10;3.38;;;16.60;99.90;;;;;;5092399;28;20515;-55
2021/08/29 02:31:45;;;;;;;9.98;3.53;;;16.60;99.90;;;;;;5092004;28;20043;-55
2021/08/29 02:34:10;;;;;;;12.88;3.20;;;16.60;99.90;;;;;;5091668;28;20059;-55
2021/08/29 02:36:37;;;;;;;8.93;3.40;;;16.60;99.90;;;;;;5092126;28;20105;-55
2021/08/29 02:39:04;;;;;;;13.13;3.90;;;16.60;99.90;;;;;;5092043;28;20087;-55
2021/08/29 02:41:30;;;;;;;9.27;3.53;;;16.60;99.90;;;;;;5091751;28;20044;-55
2021/08/29 02:43:57;;;;;;;13.52;4.38;;;16.60;99.90;;;;;;5091870;28;20042;-56
2021/08/29 02:46:24;;;;;;;7.53;3.65;;;16.60;99.90;;;;;;5091672;28;20093;-55
2021/08/29 02:48:51;;;;;;;11.07;3.70;;;16.60;99.90;;;;;;5091769;28;20402;-56
2021/08/29 02:51:17;;;;;;;9.90;3.42;;;16.60;99.90;;;;;;5092048;28;20079;-55
2021/08/29 02:53:43;;;;;;;13.02;3.65;;;16.60;99.90;;;;;;5091941;28;20040;-55
2021/08/29 02:56:10;;;;;;;14.82;3.78;;;16.60;99.90;;;;;;5091787;28;20040;-56
2021/08/29 02:58:36;;;;;;;10.05;3.88;;;16.60;99.90;;;;;;5073762;28;20040;-56
2021/08/29 03:01:02;;;;;;;9.43;3.13;;;16.60;99.90;;;;;;5091665;28;20052;-55
2021/08/29 03:03:29;;;;;;;8.10;3.03;;;16.60;99.90;;;;;;5091951;28;20461;-55
2021/08/29 03:05:54;;;;;;;10.43;3.85;;;16.60;99.90;;;;;;5092123;28;20193;-56
2021/08/29 03:08:20;;;;;;;13.88;3.60;;;16.60;99.90;;;;;;5092015;28;20553;-55
2021/08/29 03:10:47;;;;;;;7.05;3.35;;;16.60;99.90;;;;;;5091570;28;20040;-56
2021/08/29 03:13:14;;;;;;;12.25;3.47;;;16.60;99.90;;;;;;5091567;28;20406;-55
2021/08/29 03:15:40;;;;;;;11.65;3.60;;;16.60;99.90;;;;;;5091547;28;20055;-55
2021/08/29 03:18:06;;;;;;;6.60;2.85;;;16.50;99.90;;;;;;5091466;28;20481;-56
2021/08/29 03:20:32;;;;;;;9.80;3.30;;;16.60;99.90;;;;;;5091512;28;20078;-56
2021/08/29 03:22:58;;;;;;;8.50;3.08;;;16.60;99.90;;;;;;5091677;28;20036;-56
2021/08/29 03:25:25;;;;;;;10.32;3.80;;;16.60;99.90;;;;;;5091610;28;20401;-55
2021/08/29 03:27:51;;;;;;;8.77;3.10;;;16.60;99.90;;;;;;5091425;28;20044;-55
2021/08/29 03:30:17;;;;;;;8.25;3.55;;;16.60;99.90;;;;;;5091945;28;20502;-55
2021/08/29 03:32:43;;;;;;;11.63;4.20;;;16.60;99.90;;;;;;5095031;28;20147;-56
2021/08/29 03:35:09;;;;;;;13.00;3.95;;;16.60;99.90;;;;;;5095418;28;20075;-55
2021/08/29 03:37:35;;;;;;;9.95;3.38;;;16.60;99.90;;;;;;5095073;28;20043;-56
2021/08/29 03:40:04;;;;;;;16.58;3.50;;;16.60;99.90;;;;;;5095163;28;20565;-55
2021/08/29 03:42:32;;;;;;;10.57;3.50;;;16.60;99.90;;;;;;5095003;28;20119;-55
2021/08/29 03:45:03;;;;;;;12.15;3.60;;;16.60;99.90;;;;;;5095030;28;20032;-55
2021/08/29 03:47:28;;;;;;;15.00;4.03;;;16.70;99.90;;;;;;5095223;28;20093;-56
2021/08/29 03:49:55;;;;;;;8.65;3.67;;;16.60;99.90;;;;;;5095234;28;20363;-56
2021/08/29 03:52:21;;;;;;;14.25;4.57;;;16.70;99.90;;;;;;5076714;28;20127;-55
2021/08/29 03:54:47;;;;;;;9.40;3.67;;;16.70;99.90;;;;;;5094770;28;20039;-56
2021/08/29 03:57:13;;;;;;;12.82;4.13;;;16.70;99.90;;;;;;5094711;28;20494;-55
2021/08/29 03:59:40;;;;;;;12.20;4.05;;;16.60;99.90;;;;;;5094691;28;20036;-56
2021/08/29 04:02:06;;;;;;;13.38;3.90;;;16.70;99.90;;;;;;5094843;28;20032;-56
2021/08/29 04:04:33;;;;;;;15.35;3.75;;;16.70;99.90;;;;;;5094668;28;20138;-55
2021/08/29 04:07:01;;;;;;;13.15;3.95;;;16.60;99.90;;;;;;5094795;28;20374;-56
2021/08/29 04:09:29;;;;;;;;;;;16.60;99.90;;;;;;5076924;28;20040;-56
2021/08/29 04:11:55;;;;;;;12.73;4.00;;;16.60;99.90;;;;;;5094433;28;20277;-55
2021/08/29 04:14:22;;;;;;;12.60;3.90;;;16.60;99.90;;;;;;5094628;28;20036;-55
2021/08/29 04:16:49;;;;;;;15.93;4.22;;;16.70;99.90;;;;;;5094659;28;20040;-56
2021/08/29 04:19:16;;;;;;;14.43;3.92;;;16.60;99.90;;;;;;5094457;28;20466;-55
2021/08/29 04:21:42;;;;;;;14.57;4.20;;;16.60;99.90;;;;;;5094210;28;20085;-55
2021/08/29 04:24:08;;;;;;;17.80;4.53;;;16.60;99.90;;;;;;5094564;28;20032;-55
2021/08/29 04:26:34;;;;;;;11.60;3.25;;;16.60;99.90;;;;;;5093900;28;20504;-55
2021/08/29 04:29:00;;;;;;;11.38;3.97;;;16.60;99.90;;;;;;5094450;28;20032;-56
2021/08/29 04:31:30;;;;;;;11.10;4.03;;;16.60;99.90;;;;;;5094271;28;20040;-56
2021/08/29 04:33:57;;;;;;;18.83;4.35;;;16.60;99.90;;;;;;5075247;28;20048;-56
2021/08/29 04:36:22;;;;;;;11.30;3.50;;;16.60;99.90;;;;;;5094040;28;20523;-55
2021/08/29 04:38:48;;;;;;;13.10;3.67;;;16.60;99.90;;;;;;5093915;28;20068;-55
2021/08/29 04:41:14;;;;;;;12.32;4.65;;;16.50;99.90;;;;;;5093928;28;20489;-55
2021/08/29 04:43:39;;;;;;;14.38;3.80;;;16.60;99.90;;;;;;5093105;28;20032;-56
2021/08/29 04:46:05;;;;;;;14.23;4.10;;;16.50;99.90;;;;;;5093876;28;20039;-55
2021/08/29 04:48:31;;;;;;;12.27;3.38;;;16.40;99.90;;;;;;5093905;28;20039;-56
2021/08/29 04:50:58;;;;;;;7.63;3.10;;;16.30;99.90;;;;;;5093805;28;20043;-56
2021/08/29 04:53:24;;;;;;;11.18;3.10;;;16.20;99.90;;;;;;5093733;28;20086;-56
2021/08/29 04:55:49;;;;;;;8.13;2.95;;;16.10;99.90;;;;;;5093858;28;20486;-56
2021/08/29 04:58:15;;;;;;;13.32;4.28;;;16.10;99.90;;;;;;5075660;28;20048;-57
2021/08/29 05:00:40;;;;;;;6.85;3.58;;;16.20;99.90;;;;;;5093638;28;20039;-56
2021/08/29 05:03:06;;;;;;;11.52;3.72;;;16.10;99.90;;;;;;5093599;28;20367;-55
2021/08/29 05:05:32;;;;;;;8.13;3.42;;;16.10;99.90;;;;;;5093400;28;20036;-56
2021/08/29 05:07:57;;;;;;;9.60;3.92;;;16.00;99.90;;;;;;5093492;28;20032;-56
2021/08/29 05:10:23;;;;;;;9.55;3.92;;;16.10;99.90;;;;;;5093350;28;20040;-56
2021/08/29 05:12:49;;;;;;;12.45;3.70;;;16.00;99.90;;;;;;5093477;28;20044;-56
2021/08/29 05:15:14;;;;;;;10.95;3.35;;;16.00;99.90;;;;;;5093545;28;20044;-56
2021/08/29 05:17:40;;;;;;;14.10;4.28;;;16.00;99.90;;;;;;5093300;28;20039;-56
2021/08/29 05:20:06;;;;;;;12.50;3.58;;;16.10;99.90;;;;;;5093172;28;20134;-56
2021/08/29 05:22:31;;;;;;;12.07;4.13;;;16.10;99.90;;;;;;5093012;28;20526;-55
2021/08/29 05:24:57;;;;;;;13.00;3.88;;;16.10;99.90;;;;;;5093452;28;20107;-56
2021/08/29 05:27:23;;;;;;;15.93;3.53;;;16.00;99.90;;;;;;5093072;28;20075;-56
2021/08/29 05:29:48;;;;;;;12.82;3.47;;;16.10;99.90;;;;;;5093198;28;20076;-56
2021/08/29 05:32:14;;;;;;;12.60;3.67;;;16.00;99.90;;;;;;5092958;28;20047;-56
2021/08/29 05:34:39;;;;;;;15.15;3.92;;;16.00;99.90;;;;;;5093209;28;20493;-56
2021/08/29 05:37:05;;;;;;;17.73;4.35;;;16.00;99.90;;;;;;5092837;28;20040;-56
2021/08/29 05:39:31;;;;;;;15.38;4.05;;;16.00;99.90;;;;;;5092823;28;20115;-55
2021/08/29 05:41:56;;;;;;;14.75;3.85;;;16.00;99.90;;;;;;5092921;28;20470;-56
2021/08/29 05:44:22;;;;;;;15.73;4.07;;;16.00;99.90;;;;;;5074584;28;20040;-55
2021/08/29 05:46:47;;;;;;;13.40;3.63;;;16.00;99.90;;;;;;5092899;28;20028;-56
2021/08/29 05:49:13;;;;;;;21.88;5.30;;;16.00;99.90;;;;;;5092686;28;20047;-56
2021/08/29 05:51:39;;;;;;;18.17;3.63;;;16.00;99.90;;;;;;5092707;28;20040;-56
2021/08/29 05:54:04;;;;;;;17.33;3.63;;;16.00;99.90;;;;;;5091474;28;20051;-56
2021/08/29 05:56:30;;;;;;;17.52;3.67;;;15.90;99.90;;;;;;5092815;28;20040;-55
2021/08/29 05:58:56;;;;;;;11.35;3.20;;;15.90;99.90;;;;;;5092512;28;20165;-55
2021/08/29 06:01:21;;;;;;;15.52;3.80;;;16.00;99.90;;;;;;5092509;28;20123;-56
2021/08/29 06:03:47;;;;;;;22.48;3.55;;;15.90;99.90;;;;;;5092613;28;20448;-55
2021/08/29 06:06:13;;;;;;;13.90;3.20;;;16.00;99.90;;;;;;5092287;28;20028;-56
2021/08/29 06:08:38;;;;;;;10.65;2.92;;;16.00;99.90;;;;;;5092245;28;20059;-55
2021/08/29 06:11:07;;;;;;;18.10;3.65;;;16.00;99.90;;;;;;5092721;28;20123;-55
2021/08/29 06:13:33;;;;;;;;;;;16.00;99.90;;;;;;5092820;28;20032;-56
2021/08/29 06:15:59;;;;;;;12.13;3.42;;;16.00;99.90;;;;;;5092581;28;20392;-56
2021/08/29 06:18:24;;;;;;;20.58;4.65;;;16.00;99.90;;;;;;5092461;28;20098;-55
2021/08/29 06:20:50;;;;;;;16.95;3.92;;;16.00;99.90;;;;;;5092044;28;20043;-56
2021/08/29 06:23:15;;;;;;;25.90;4.47;;;16.10;99.90;;;;;;5073209;28;20135;-55
2021/08/29 06:25:41;;;;;;;17.30;3.30;;;16.00;99.90;;;;;;5092211;28;20033;-56
2021/08/29 06:28:07;;;;;;;18.17;4.15;;;16.00;99.90;;;;;;5091955;28;20436;-56
2021/08/29 06:30:33;;;;;;;17.63;4.70;;;16.10;99.90;;;;;;5092141;28;20031;-55
2021/08/29 06:32:58;;;;;;;21.27;4.93;;;16.00;99.90;;;;;;5091927;28;20070;-56
2021/08/29 06:35:24;;;;;;;14.48;3.28;;;16.10;99.90;;;;;;5092077;28;20482;-55
2021/08/29 06:37:50;;;;;;;14.68;3.47;;;16.10;99.90;;;;;;5091908;28;20432;-56
2021/08/29 06:40:15;;;;;;;17.88;4.38;;;16.10;99.90;;;;;;5091777;28;20113;-55
2021/08/29 06:42:41;;;;;;;21.38;4.63;;;16.10;99.90;;;;;;5091827;28;20040;-55
2021/08/29 06:45:08;;;;;;;19.38;4.50;;;16.10;99.90;;;;;;5092201;28;20085;-56
2021/08/29 06:47:34;;;;;;;23.17;4.93;;;16.10;99.90;;;;;;5091911;28;20036;-56
2021/08/29 06:49:59;;;;;;;20.52;4.70;;;16.10;99.90;;;;;;5092283;28;20111;-55
2021/08/29 06:52:25;;;;;;;17.00;4.15;;;16.10;99.90;;;;;;5091629;28;20043;-56
2021/08/29 06:54:51;;;;;;;18.98;5.13;;;16.10;99.90;;;;;;5091679;28;20036;-55
2021/08/29 06:57:16;;;;;;;10.38;3.63;;;16.10;99.90;;;;;;5092118;28;20075;-57
2021/08/29 06:59:42;;;;;;;18.88;5.07;;;16.20;99.90;;;;;;5092221;28;20136;-56
2021/08/29 07:02:08;;;;;;;16.45;4.38;;;16.00;99.90;;;;;;5091761;28;20041;-55
2021/08/29 07:04:33;;;;;;;13.48;5.10;;;16.10;99.90;;;;;;5073893;28;20040;-56
2021/08/29 07:06:59;;;;;;;15.43;5.32;;;16.00;99.90;;;;;;5095124;28;20111;-56
2021/08/29 07:09:24;;;;;;;16.88;4.95;;;16.10;99.90;;;;;;5096038;28;20405;-56
2021/08/29 07:11:50;;;;;;;13.60;4.60;;;16.10;99.90;;;;;;5077519;28;20056;-56
2021/08/29 07:14:16;;;;;;;12.02;5.05;;;16.00;99.90;;;;;;5095634;28;20039;-55
2021/08/29 07:16:41;;;;;;;16.48;5.82;;;16.00;99.90;;;;;;5095727;28;20039;-56
2021/08/29 07:19:07;;;;;;;16.98;5.43;;;16.00;99.90;;;;;;5095566;28;20040;-55
2021/08/29 07:21:33;;;;;;;16.05;5.25;;;16.00;99.90;;;;;;5095316;28;20040;-56
2021/08/29 07:23:58;;;;;;;16.45;4.75;;;15.90;99.90;;;;;;5095404;28;20032;-55
2021/08/29 07:26:24;;;;;;;14.10;4.70;;;16.10;99.90;;;;;;5095480;28;20040;-56
2021/08/29 07:28:51;;;;;;;20.15;5.00;;;16.00;99.90;;;;;;5095501;28;20424;-55
2021/08/29 07:31:16;;;;;;;11.85;3.78;;;16.00;99.90;;;;;;5095416;28;20040;-56
2021/08/29 07:33:42;;;;;;;15.80;4.30;;;16.10;99.90;;;;;;5095288;28;20391;-55
2021/08/29 07:36:08;;;;;;;12.00;4.82;;;16.10;99.90;;;;;;5095379;28;20044;-55
2021/08/29 07:38:34;;;;;;;13.60;4.47;;;16.10;99.90;;;;;;5095423;28;20187;-55
2021/08/29 07:41:00;;;;;;;15.93;5.25;;;16.10;99.90;;;;;;5077369;28;20044;-55
2021/08/29 07:43:26;;;;;;;16.20;5.43;;;16.10;99.90;;;;;;5095260;28;20123;-55
2021/08/29 07:45:51;;;;;;;11.48;4.10;;;16.20;99.90;;;;;;5095241;28;20119;-56
2021/08/29 07:48:17;;;;;;;11.68;4.57;;;16.20;99.90;;;;;;5095063;28;20139;-55
2021/08/29 07:50:43;;;;;;;16.20;5.60;;;16.20;99.90;;;;;;5095015;28;20481;-54
2021/08/29 07:53:08;;;;;;;20.42;5.35;;;16.30;99.90;;;;;;5095096;28;20036;-55
2021/08/29 07:55:34;;;;;;;16.00;5.97;;;16.30;99.90;;;;;;5095006;28;20497;-55
2021/08/29 07:58:00;;;;;;;21.70;5.47;;;16.30;99.90;;;;;;5095017;28;20432;-55
2021/08/29 08:00:26;;;;;;;13.32;4.60;;;16.30;99.90;;;;;;5094739;28;20063;-55
2021/08/29 08:02:52;;;;;;;16.90;5.25;;;16.40;99.90;;;;;;5094801;28;20072;-55
2021/08/29 08:05:17;;;;;;;13.25;4.85;;;16.40;99.90;;;;;;5076366;28;20047;-55
2021/08/29 08:07:43;;;;;;;16.15;5.82;;;16.40;99.90;;;;;;5094832;28;20071;-55
2021/08/29 08:10:09;;;;;;;28.83;6.50;;;16.40;99.90;;;;;;5094638;28;20034;-55
2021/08/29 08:12:35;;;;;;;17.52;5.78;;;16.50;99.90;;;;;;5094439;28;20474;-55
2021/08/29 08:15:01;;;;;;;16.63;5.95;;;16.50;99.90;;;;;;5094414;28;20085;-55
2021/08/29 08:17:26;;;;;;;14.93;5.53;;;16.50;99.90;;;;;;5093267;28;20036;-55
2021/08/29 08:19:52;;;;;;;16.15;5.43;;;16.60;99.90;;;;;;5094480;28;20040;-56
2021/08/29 08:22:18;;;;;;;15.60;5.70;;;16.60;99.90;;;;;;5094665;28;20032;-55
2021/08/29 08:24:44;;;;;;;17.65;5.03;;;16.70;99.90;;;;;;5094417;28;20067;-55
2021/08/29 08:27:10;;;;;;;11.85;5.32;;;16.70;99.90;;;;;;5094230;28;20036;-55
2021/08/29 08:29:35;;;;;;;12.40;4.82;;;16.70;99.90;;;;;;5094328;28;20043;-55
2021/08/29 08:32:01;;;;;;;9.88;5.18;;;16.80;99.90;;;;;;5094205;28;20036;-55
2021/08/29 08:34:27;;;;;;;8.05;4.15;;;16.80;99.90;;;;;;5094431;28;20044;-55
2021/08/29 08:36:52;;;;;;;10.32;5.32;;;16.80;99.90;;;;;;5094321;28;20093;-55
2021/08/29 08:39:18;;;;;;;9.90;4.72;;;16.80;99.90;;;;;;5094126;28;20040;-55
2021/08/29 08:41:44;;;;;;;9.38;4.10;;;16.90;99.90;;;;;;5093948;28;20040;-55
2021/08/29 08:44:09;;;;;;;8.32;3.90;;;16.90;99.90;;;;;;5094049;28;20038;-55
2021/08/29 08:46:37;;;;;;;10.35;3.53;;;16.90;99.90;;;;;;5075562;28;20089;-55
2021/08/29 08:49:03;;;;;;;6.32;3.45;;;16.90;99.90;;;;;;5093835;28;20031;-55
2021/08/29 08:51:30;;;;;;;10.40;3.92;;;16.90;99.90;;;;;;5093882;28;20046;-56
2021/08/29 08:54:00;;;;;;;9.48;3.40;;;16.90;99.90;;;;;;5093971;28;20417;-55
2021/08/29 08:56:26;;;;;;;6.72;3.33;;;16.80;99.90;;;;;;5093695;28;20044;-55
2021/08/29 08:58:57;;;;;;;11.45;3.60;;;16.80;99.90;;;;;;5093670;28;20059;-55
2021/08/29 09:01:22;;;;;;;9.30;3.90;;;16.80;99.90;;;;;;5093589;28;20044;-55
2021/08/29 09:03:48;;;;;;;6.82;3.22;;;16.80;99.90;;;;;;5093418;28;20040;-55
2021/08/29 09:06:14;;;;;;;11.88;3.63;;;16.80;99.90;;;;;;5093702;28;20040;-56
2021/08/29 09:08:40;;;;;;;5.88;3.20;;;16.70;99.90;;;;;;5075328;28;20037;-55
2021/08/29 09:11:06;;;;;;;6.55;3.20;;;16.70;99.90;;;;;;5075258;28;20462;-56
2021/08/29 09:13:46;;;;;;;6.38;3.30;;;16.70;99.90;;;;;;5093401;28;20067;-55
2021/08/29 09:16:13;;;;;;;8.52;3.63;;;16.60;99.90;;;;;;5093524;28;20052;-55
2021/08/29 09:18:50;;;;;;;10.00;3.10;;;16.60;99.90;;;;;;5093393;28;20043;-55
2021/08/29 09:21:23;;;;;;;11.00;3.13;;;16.70;99.90;;;;;;5093500;28;20079;-55
2021/08/29 09:23:49;;;;;;;8.45;3.40;;;16.70;99.90;;;;;;5093117;28;20032;-55
2021/08/29 09:26:18;;;;;;;7.10;3.40;;;16.70;99.90;;;;;;5093078;28;20503;-56
2021/08/29 09:28:45;;;;;;;10.98;3.33;;;16.80;99.90;;;;;;5092767;28;20082;-55
2021/08/29 09:31:11;;;;;;;9.63;3.30;;;16.80;99.90;;;;;;5093023;28;20466;-55
2021/08/29 09:33:37;;;;;;;13.05;4.68;;;16.80;99.90;;;;;;5092801;28;20102;-55
2021/08/29 09:36:03;;;;;;;11.13;3.33;;;16.90;99.90;;;;;;5093060;28;20080;-55
2021/08/29 09:38:40;;;;;;;8.68;3.58;;;17.00;99.90;;;;;;5093180;28;20096;-55
2021/08/29 09:41:23;;;;;;;7.40;3.20;;;17.00;99.90;;;;;;5074228;28;20117;-55
2021/08/29 09:43:48;;;;;;;6.72;3.28;;;17.00;99.90;;;;;;5092670;28;20497;-55
2021/08/29 09:46:14;;;;;;;5.78;2.50;;;17.00;99.90;;;;;;5092987;28;20028;-55
2021/08/29 09:48:48;;;;;;;8.35;3.17;;;17.00;99.90;;;;;;5092643;28;20466;-55
2021/08/29 09:51:15;;;;;;;6.40;2.38;;;17.00;99.90;;;;;;5092741;28;20058;-55
2021/08/29 09:53:46;;;;;;;5.53;2.38;;;17.00;99.90;;;;;;5092779;28;20059;-55
2021/08/29 09:56:23;;;;;;;5.78;2.40;;;17.10;99.90;;;;;;5092632;28;20477;-55
2021/08/29 09:58:49;;;;;;;3.13;2.13;;;17.10;99.90;;;;;;5092504;28;20063;-55
2021/08/29 10:01:18;;;;;;;6.65;2.17;;;17.10;99.90;;;;;;5074201;28;20087;-55
2021/08/29 10:03:45;;;;;;;;;;;17.00;99.90;;;;;;5093020;28;20115;-55
2021/08/29 10:06:14;;;;;;;10.70;3.17;;;17.10;99.90;;;;;;5092429;28;19916;-56
2021/08/29 10:08:40;;;;;;;;;;;17.00;99.90;;;;;;5074244;28;20561;-56
2021/08/29 10:11:06;;;;;;;6.13;2.40;;;17.00;99.90;;;;;;5092345;28;19922;-55
2021/08/29 10:13:32;;;;;;;10.43;3.58;;;17.00;99.90;;;;;;5092137;28;20119;-55
2021/08/29 10:15:58;;;;;;;6.22;2.50;;;16.90;99.90;;;;;;5092363;28;20047;-55
2021/08/29 10:18:23;;;;;;;10.70;3.70;;;17.00;99.90;;;;;;5092210;28;20446;-56
2021/08/29 10:20:49;;;;;;;6.10;3.40;;;16.90;99.90;;;;;;5092132;28;20355;-55
2021/08/29 10:23:17;;;;;;;9.70;2.60;;;16.90;99.90;;;;;;5092411;28;20067;-55
2021/08/29 10:25:43;;;;;;;6.57;3.17;;;17.00;99.90;;;;;;5092259;28;20028;-55
2021/08/29 10:28:14;;;;;;;7.18;2.95;;;16.90;99.90;;;;;;5092030;28;20053;-55
2021/08/29 10:30:41;;;;;;;9.85;3.00;;;17.00;99.90;;;;;;5091927;28;20493;-56
2021/08/29 10:33:11;;;;;;;5.80;2.72;;;17.00;99.90;;;;;;5091781;28;20131;-55
2021/08/29 10:35:38;;;;;;;8.55;3.10;;;17.00;99.90;;;;;;5092185;28;20406;-55
2021/08/29 10:38:04;;;;;;;5.07;3.28;;;17.00;99.90;;;;;;5092099;28;20048;-55
2021/08/29 10:40:30;;;;;;;10.80;3.22;;;17.00;99.90;;;;;;5091296;28;20040;-55
2021/08/29 10:42:58;;;;;;;5.85;3.05;;;17.00;99.90;;;;;;5091912;28;20397;-55
2021/08/29 10:45:24;;;;;;;7.22;3.42;;;17.00;99.90;;;;;;5091877;28;20036;-56
2021/08/29 10:47:50;;;;;;;7.30;3.13;;;17.00;99.90;;;;;;5073789;28;20099;-55
2021/08/29 10:50:18;;;;;;;7.28;2.97;;;17.00;99.90;;;;;;5092101;28;20089;-55
2021/08/29 10:52:45;;;;;;;6.40;2.85;;;17.00;99.90;;;;;;5091918;28;20378;-56
2021/08/29 10:55:14;;;;;;;7.53;2.75;;;17.00;99.90;;;;;;5091747;28;20454;-56
2021/08/29 10:57:45;;;;;;;5.72;2.97;;;17.00;99.90;;;;;;5091792;28;20533;-55
2021/08/29 11:00:12;;;;;;;6.40;3.17;;;17.00;99.90;;;;;;5091945;28;20153;-55
2021/08/29 11:02:44;;;;;;;9.70;3.70;;;17.00;99.90;;;;;;5091728;28;20075;-56
2021/08/29 11:05:36;;;;;;;11.40;7.28;;;17.00;99.90;;;;;;5091869;28;20072;-55
2021/08/29 11:08:27;;;;;;;8.57;3.85;;;17.00;99.90;;;;;;5091667;28;20044;-56
2021/08/29 11:10:54;;;;;;;8.00;3.70;;;17.00;99.90;;;;;;5091549;28;20036;-56
2021/08/29 11:13:29;;;;;;;5.55;3.55;;;17.00;99.90;;;;;;5091889;28;20055;-56
2021/08/29 11:16:13;;;;;;;9.43;5.70;;;16.90;99.90;;;;;;5091784;28;20058;-55
2021/08/29 11:19:03;;;;;;;8.65;4.20;;;17.00;99.90;;;;;;5091669;28;20416;-55
2021/08/29 11:21:34;;;;;;;10.70;4.10;;;17.00;99.90;;;;;;5091644;28;20047;-55
2021/08/29 11:24:01;;;;;;;6.25;3.42;;;17.10;99.90;;;;;;5091500;28;20482;-55
2021/08/29 11:26:27;;;;;;;6.43;3.95;;;17.10;99.90;;;;;;5091705;28;20039;-56
2021/08/29 11:28:52;;;;;;;7.22;3.65;;;17.10;99.90;;;;;;5091789;28;20052;-55
2021/08/29 11:31:53;;;;;;;6.20;4.03;;;17.10;99.90;;;;;;5091687;28;20047;-55
2021/08/29 11:34:20;;;;;;;6.93;3.83;;;17.20;99.90;;;;;;5091298;28;20417;-56
2021/08/29 11:36:46;;;;;;;9.57;4.45;;;17.30;99.90;;;;;;5091516;28;20040;-55
2021/08/29 11:39:58;;;;;;;6.80;3.65;;;17.20;99.90;;;;;;5091470;28;20490;-55
2021/08/29 11:42:23;;;;;;;;;;;17.20;99.90;;;;;;5009704;28;20416;-55
2021/08/29 11:44:49;;;;;;;5.68;4.03;;;17.20;99.90;;;;;;5009271;28;19917;-55
2021/08/29 11:47:15;;;;;;;6.68;3.58;;;17.10;99.90;;;;;;5009350;28;20125;-55
2021/08/29 11:49:41;;;;;;;5.80;3.78;;;17.20;99.90;;;;;;5009254;28;20218;-55
2021/08/29 11:52:07;;;;;;;6.93;3.63;;;17.20;99.90;;;;;;5011133;28;20049;-56
2021/08/29 11:54:33;;;;;;;8.55;4.75;;;17.20;99.90;;;;;;4996429;28;20143;-55
2021/08/29 11:56:59;;;;;;;6.53;4.13;;;17.20;99.90;;;;;;5012716;28;20046;-55
2021/08/29 11:59:26;;;;;;;5.53;3.10;;;17.20;99.90;;;;;;5012798;28;20120;-55
2021/08/29 12:01:57;;;;;;;12.05;4.45;;;17.20;99.90;;;;;;4996291;28;20069;-55
2021/08/29 12:04:23;;;;;;;7.95;3.72;;;17.10;99.90;;;;;;5012661;28;20053;-55
2021/08/29 12:07:04;;;;;;;8.00;3.80;;;17.20;99.90;;;;;;5012664;28;20037;-55
2021/08/29 12:09:42;;;;;;;11.73;4.45;;;17.20;99.90;;;;;;5012585;28;20046;-56
2021/08/29 12:12:15;;;;;;;6.38;4.07;;;17.10;99.90;;;;;;5012532;28;20479;-56
2021/08/29 12:14:42;;;;;;;7.95;4.50;;;17.20;99.90;;;;;;5012567;28;20049;-55
2021/08/29 12:17:12;;;;;;;10.05;4.65;;;17.30;99.90;;;;;;5086402;28;20093;-56
2021/08/29 12:19:39;;;;;;;9.75;4.43;;;17.40;99.90;;;;;;5094516;28;20040;-56
2021/08/29 12:22:09;;;;;;;7.63;4.13;;;17.50;99.90;;;;;;5094681;28;20498;-55
2021/08/29 12:24:40;;;;;;;9.68;4.32;;;17.50;99.90;;;;;;5081027;28;20033;-55
2021/08/29 12:27:08;;;;;;;10.98;4.45;;;17.50;99.90;;;;;;5083974;28;20032;-56
2021/08/29 12:29:46;;;;;;;8.40;3.65;;;17.50;99.90;;;;;;5080930;28;20036;-56
2021/08/29 12:32:33;;;;;;;10.27;4.50;;;17.50;99.90;;;;;;5087162;28;20067;-55
2021/08/29 12:35:08;;;;;;;10.02;4.68;;;17.50;99.90;;;;;;5073761;28;20055;-56
2021/08/29 12:37:40;;;;;;;9.55;4.63;;;17.50;99.90;;;;;;5086623;28;20402;-55
2021/08/29 12:40:09;;;;;;;13.15;5.05;;;17.50;99.90;;;;;;5076725;28;20032;-56
2021/08/29 12:42:35;;;;;;;;;;;17.50;99.90;;;;;;5086850;28;20037;-56
2021/08/29 12:45:04;;;;;;;10.43;4.50;;;17.50;99.90;;;;;;5082251;28;19916;-56